sensor_id;sensor_type;location;lat;lon;timestamp;pressure;altitude;pressure_sealevel;temperature;humidity
66196;BME280;53000;45.182;5.736;2022-10-31T00:01:32;99765.59;;;17.46;61.19
66196;BME280;53000;45.182;5.736;2022-10-31T00:04:05;99763.03;;;17.45;61.39
66196;BME280;53000;45.182;5.736;2022-10-31T00:06:31;99765.78;;;17.45;61.25
66196;BME280;53000;45.182;5.736;2022-10-31T00:09:15;99754.38;;;17.41;61.20
66196;BME280;53000;45.182;5.736;2022-10-31T00:11:46;99754.81;;;17.38;61.14
66196;BME280;53000;45.182;5.736;2022-10-31T00:14:13;99762.59;;;17.41;61.34
66196;BME280;53000;45.182;5.736;2022-10-31T00:16:39;99757.13;;;17.41;61.22
66196;BME280;53000;45.182;5.736;2022-10-31T00:19:08;99756.72;;;17.37;61.29
66196;BME280;53000;45.182;5.736;2022-10-31T00:21:38;99762.19;;;17.37;61.28
66196;BME280;53000;45.182;5.736;2022-10-31T00:24:10;99757.09;;;17.34;61.35
66196;BME280;53000;45.182;5.736;2022-10-31T00:26:38;99757.28;;;17.33;61.54
66196;BME280;53000;45.182;5.736;2022-10-31T00:29:04;99757.50;;;17.31;61.36
66196;BME280;53000;45.182;5.736;2022-10-31T00:31:29;99761.28;;;17.30;61.27
66196;BME280;53000;45.182;5.736;2022-10-31T00:33:55;99754.31;;;17.28;61.84
66196;BME280;53000;45.182;5.736;2022-10-31T00:36:25;99753.47;;;17.27;61.69
66196;BME280;53000;45.182;5.736;2022-10-31T00:38:52;99746.13;;;17.28;61.44
66196;BME280;53000;45.182;5.736;2022-10-31T00:41:18;99742.53;;;17.27;61.40
66196;BME280;53000;45.182;5.736;2022-10-31T00:43:43;99752.84;;;17.25;61.68
66196;BME280;53000;45.182;5.736;2022-10-31T00:46:10;99746.72;;;17.23;61.54
66196;BME280;53000;45.182;5.736;2022-10-31T00:48:35;99745.00;;;17.22;61.48
66196;BME280;53000;45.182;5.736;2022-10-31T00:51:06;99742.28;;;17.22;61.32
66196;BME280;53000;45.182;5.736;2022-10-31T00:53:32;99747.97;;;17.21;61.32
66196;BME280;53000;45.182;5.736;2022-10-31T00:56:00;99748.38;;;17.17;61.42
66196;BME280;53000;45.182;5.736;2022-10-31T00:58:27;99740.56;;;17.14;61.18
66196;BME280;53000;45.182;5.736;2022-10-31T01:00:55;99747.28;;;17.12;61.78
66196;BME280;53000;45.182;5.736;2022-10-31T01:03:26;99743.91;;;17.10;61.51
66196;BME280;53000;45.182;5.736;2022-10-31T01:06:04;99733.16;;;17.08;61.68
66196;BME280;53000;45.182;5.736;2022-10-31T01:08:30;99731.47;;;17.07;61.78
66196;BME280;53000;45.182;5.736;2022-10-31T01:13:34;99743.66;;;17.05;61.96
66196;BME280;53000;45.182;5.736;2022-10-31T01:16:00;99743.00;;;17.03;61.85
66196;BME280;53000;45.182;5.736;2022-10-31T01:18:30;99742.16;;;17.02;61.84
66196;BME280;53000;45.182;5.736;2022-10-31T01:21:06;99745.09;;;17.01;61.41
66196;BME280;53000;45.182;5.736;2022-10-31T01:23:32;99743.16;;;16.94;62.03
66196;BME280;53000;45.182;5.736;2022-10-31T01:28:32;99723.53;;;16.84;61.56
66196;BME280;53000;45.182;5.736;2022-10-31T01:31:03;99730.69;;;16.85;62.38
66196;BME280;53000;45.182;5.736;2022-10-31T01:33:28;99724.56;;;16.83;62.28
66196;BME280;53000;45.182;5.736;2022-10-31T01:35:54;99721.84;;;16.83;62.45
66196;BME280;53000;45.182;5.736;2022-10-31T01:38:19;99728.16;;;16.84;62.27
66196;BME280;53000;45.182;5.736;2022-10-31T01:40:51;99722.69;;;16.84;62.77
66196;BME280;53000;45.182;5.736;2022-10-31T01:43:17;99720.16;;;16.82;62.51
66196;BME280;53000;45.182;5.736;2022-10-31T01:45:46;99723.53;;;16.84;62.22
66196;BME280;53000;45.182;5.736;2022-10-31T01:48:23;99723.53;;;16.84;61.92
66196;BME280;53000;45.182;5.736;2022-10-31T01:50:54;99725.81;;;16.81;62.05
66196;BME280;53000;45.182;5.736;2022-10-31T01:53:20;99717.78;;;16.79;62.36
66196;BME280;53000;45.182;5.736;2022-10-31T01:55:46;99716.09;;;16.78;62.51
66196;BME280;53000;45.182;5.736;2022-10-31T01:58:31;99716.78;;;16.80;62.56
66196;BME280;53000;45.182;5.736;2022-10-31T02:00:59;99717.63;;;16.81;62.64
66196;BME280;53000;45.182;5.736;2022-10-31T02:03:25;99716.78;;;16.80;62.74
66196;BME280;53000;45.182;5.736;2022-10-31T02:05:57;99710.25;;;16.81;62.47
66196;BME280;53000;45.182;5.736;2022-10-31T02:08:29;99708.16;;;16.83;62.39
66196;BME280;53000;45.182;5.736;2022-10-31T02:10:58;99703.75;;;16.82;62.71
66196;BME280;53000;45.182;5.736;2022-10-31T02:13:25;99703.13;;;16.80;62.64
66196;BME280;53000;45.182;5.736;2022-10-31T02:15:55;99693.00;;;16.81;62.70
66196;BME280;53000;45.182;5.736;2022-10-31T02:18:29;99701.22;;;16.81;62.45
66196;BME280;53000;45.182;5.736;2022-10-31T02:21:06;99697.66;;;16.80;62.36
66196;BME280;53000;45.182;5.736;2022-10-31T02:26:36;99702.91;;;16.82;62.20
66196;BME280;53000;45.182;5.736;2022-10-31T02:32:29;99687.72;;;16.79;62.25
66196;BME280;53000;45.182;5.736;2022-10-31T02:35:27;99683.09;;;16.80;62.42
66196;BME280;53000;45.182;5.736;2022-10-31T02:43:21;99679.09;;;16.75;62.67
66196;BME280;53000;45.182;5.736;2022-10-31T02:46:02;99680.75;;;16.76;62.52
66196;BME280;53000;45.182;5.736;2022-10-31T02:48:44;99687.94;;;16.77;62.68
66196;BME280;53000;45.182;5.736;2022-10-31T02:51:11;99685.19;;;16.77;62.89
66196;BME280;53000;45.182;5.736;2022-10-31T02:53:37;99688.31;;;16.74;62.73
66196;BME280;53000;45.182;5.736;2022-10-31T02:58:59;99677.97;;;16.70;62.56
66196;BME280;53000;45.182;5.736;2022-10-31T03:01:48;99689.75;;;16.70;62.74
66196;BME280;53000;45.182;5.736;2022-10-31T03:04:29;99679.47;;;16.72;62.34
66196;BME280;53000;45.182;5.736;2022-10-31T03:09:59;99680.31;;;16.73;62.39
66196;BME280;53000;45.182;5.736;2022-10-31T03:12:40;99678.44;;;16.73;62.82
66196;BME280;53000;45.182;5.736;2022-10-31T03:15:25;99679.03;;;16.69;63.00
66196;BME280;53000;45.182;5.736;2022-10-31T03:18:03;99687.44;;;16.67;63.23
66196;BME280;53000;45.182;5.736;2022-10-31T03:21:00;99689.50;;;16.65;63.18
66196;BME280;53000;45.182;5.736;2022-10-31T03:23:28;99685.06;;;16.64;63.16
66196;BME280;53000;45.182;5.736;2022-10-31T03:26:05;99695.16;;;16.64;63.51
66196;BME280;53000;45.182;5.736;2022-10-31T03:28:38;99685.94;;;16.65;63.24
66196;BME280;53000;45.182;5.736;2022-10-31T03:31:09;99690.53;;;16.64;63.24
66196;BME280;53000;45.182;5.736;2022-10-31T03:33:38;99684.06;;;16.65;63.16
66196;BME280;53000;45.182;5.736;2022-10-31T03:36:11;99693.72;;;16.68;63.14
66196;BME280;53000;45.182;5.736;2022-10-31T03:38:44;99693.91;;;16.66;63.24
66196;BME280;53000;45.182;5.736;2022-10-31T03:41:18;99700.00;;;16.62;62.57
66196;BME280;53000;45.182;5.736;2022-10-31T03:43:54;99690.13;;;16.61;63.00
66196;BME280;53000;45.182;5.736;2022-10-31T03:46:22;99684.00;;;16.59;62.67
66196;BME280;53000;45.182;5.736;2022-10-31T03:48:51;99690.63;;;16.49;63.00
66196;BME280;53000;45.182;5.736;2022-10-31T03:51:32;99684.34;;;16.49;63.17
66196;BME280;53000;45.182;5.736;2022-10-31T03:54:16;99688.78;;;16.50;63.20
66196;BME280;53000;45.182;5.736;2022-10-31T03:56:56;99681.41;;;16.50;63.04
66196;BME280;53000;45.182;5.736;2022-10-31T03:59:39;99694.88;;;16.52;63.22
66196;BME280;53000;45.182;5.736;2022-10-31T04:02:09;99688.56;;;16.51;62.95
66196;BME280;53000;45.182;5.736;2022-10-31T04:04:36;99701.19;;;16.52;63.42
66196;BME280;53000;45.182;5.736;2022-10-31T04:07:03;99684.78;;;16.52;63.06
66196;BME280;53000;45.182;5.736;2022-10-31T04:09:33;99678.28;;;16.53;63.21
66196;BME280;53000;45.182;5.736;2022-10-31T04:12:01;99685.63;;;16.53;63.11
66196;BME280;53000;45.182;5.736;2022-10-31T04:14:31;99677.63;;;16.51;62.98
66196;BME280;53000;45.182;5.736;2022-10-31T04:17:05;99672.56;;;16.48;63.04
66196;BME280;53000;45.182;5.736;2022-10-31T04:19:32;99681.78;;;16.47;62.77
66196;BME280;53000;45.182;5.736;2022-10-31T04:21:58;99677.16;;;16.41;63.14
66196;BME280;53000;45.182;5.736;2022-10-31T04:24:33;99675.19;;;16.35;63.16
66196;BME280;53000;45.182;5.736;2022-10-31T04:27:00;99673.50;;;16.34;63.19
66196;BME280;53000;45.182;5.736;2022-10-31T04:29:28;99670.56;;;16.35;63.45
66196;BME280;53000;45.182;5.736;2022-10-31T04:31:54;99676.88;;;16.36;63.68
66196;BME280;53000;45.182;5.736;2022-10-31T04:34:22;99667.00;;;16.35;63.77
66196;BME280;53000;45.182;5.736;2022-10-31T04:36:47;99660.47;;;16.36;63.47
66196;BME280;53000;45.182;5.736;2022-10-31T04:39:13;99657.69;;;16.29;63.31
66196;BME280;53000;45.182;5.736;2022-10-31T04:41:38;99665.50;;;16.32;63.66
66196;BME280;53000;45.182;5.736;2022-10-31T04:44:04;99666.72;;;16.30;63.85
66196;BME280;53000;45.182;5.736;2022-10-31T04:46:29;99661.28;;;16.30;63.70
66196;BME280;53000;45.182;5.736;2022-10-31T04:48:57;99663.81;;;16.31;63.79
66196;BME280;53000;45.182;5.736;2022-10-31T04:51:22;99669.09;;;16.33;63.85
66196;BME280;53000;45.182;5.736;2022-10-31T04:53:48;99676.44;;;16.32;63.76
66196;BME280;53000;45.182;5.736;2022-10-31T04:56:16;99678.13;;;16.33;63.96
66196;BME280;53000;45.182;5.736;2022-10-31T04:58:43;99674.53;;;16.33;64.06
66196;BME280;53000;45.182;5.736;2022-10-31T05:01:09;99668.44;;;16.31;64.07
66196;BME280;53000;45.182;5.736;2022-10-31T05:03:34;99667.00;;;16.35;64.75
66196;BME280;53000;45.182;5.736;2022-10-31T05:05:59;99666.34;;;16.33;63.85
66196;BME280;53000;45.182;5.736;2022-10-31T05:08:34;99669.47;;;16.30;64.09
66196;BME280;53000;45.182;5.736;2022-10-31T05:11:01;99666.34;;;16.33;63.63
66196;BME280;53000;45.182;5.736;2022-10-31T05:13:27;99664.00;;;16.30;63.70
66196;BME280;53000;45.182;5.736;2022-10-31T05:15:57;99667.31;;;16.25;63.78
66196;BME280;53000;45.182;5.736;2022-10-31T05:18:30;99675.47;;;16.19;63.60
66196;BME280;53000;45.182;5.736;2022-10-31T05:20:58;99671.56;;;16.06;63.88
66196;BME280;53000;45.182;5.736;2022-10-31T05:23:26;99676.38;;;16.04;64.04
66196;BME280;53000;45.182;5.736;2022-10-31T05:25:56;99680.63;;;16.07;64.37
66196;BME280;53000;45.182;5.736;2022-10-31T05:28:21;99676.44;;;16.11;64.39
66196;BME280;53000;45.182;5.736;2022-10-31T05:30:48;99669.69;;;16.07;64.05
66196;BME280;53000;45.182;5.736;2022-10-31T05:33:16;99678.78;;;16.14;64.06
66196;BME280;53000;45.182;5.736;2022-10-31T05:35:41;99672.50;;;16.13;64.81
66196;BME280;53000;45.182;5.736;2022-10-31T05:38:10;99681.34;;;16.15;64.26
66196;BME280;53000;45.182;5.736;2022-10-31T05:40:37;99689.06;;;16.12;64.18
66196;BME280;53000;45.182;5.736;2022-10-31T05:43:03;99689.06;;;16.12;64.65
66196;BME280;53000;45.182;5.736;2022-10-31T05:45:28;99683.19;;;16.15;64.29
66196;BME280;53000;45.182;5.736;2022-10-31T05:47:55;99684.72;;;16.18;63.96
66196;BME280;53000;45.182;5.736;2022-10-31T05:50:22;99688.28;;;16.18;64.08
66196;BME280;53000;45.182;5.736;2022-10-31T05:52:54;99685.56;;;16.18;63.92
66196;BME280;53000;45.182;5.736;2022-10-31T05:55:20;99674.22;;;16.21;64.00
66196;BME280;53000;45.182;5.736;2022-10-31T05:57:48;99674.81;;;16.17;63.87
66196;BME280;53000;45.182;5.736;2022-10-31T06:00:13;99677.94;;;16.13;63.64
66196;BME280;53000;45.182;5.736;2022-10-31T06:02:38;99681.91;;;16.11;63.60
66196;BME280;53000;45.182;5.736;2022-10-31T06:05:04;99685.03;;;16.08;63.77
66196;BME280;53000;45.182;5.736;2022-10-31T06:07:33;99683.41;;;16.13;63.87
66196;BME280;53000;45.182;5.736;2022-10-31T06:09:59;99680.28;;;16.17;63.51
66196;BME280;53000;45.182;5.736;2022-10-31T06:12:27;99686.38;;;16.19;63.51
66196;BME280;53000;45.182;5.736;2022-10-31T06:14:57;99693.75;;;16.18;63.43
66196;BME280;53000;45.182;5.736;2022-10-31T06:17:30;99690.38;;;16.16;63.49
66196;BME280;53000;45.182;5.736;2022-10-31T06:19:55;99685.28;;;16.13;63.44
66196;BME280;53000;45.182;5.736;2022-10-31T06:22:23;99684.56;;;16.04;63.45
66196;BME280;53000;45.182;5.736;2022-10-31T06:24:49;99679.91;;;15.98;63.85
66196;BME280;53000;45.182;5.736;2022-10-31T06:27:14;99689.97;;;15.98;64.46
66196;BME280;53000;45.182;5.736;2022-10-31T06:29:40;99692.03;;;15.95;64.08
66196;BME280;53000;45.182;5.736;2022-10-31T06:32:05;99709.47;;;15.94;64.17
66196;BME280;53000;45.182;5.736;2022-10-31T06:34:30;99701.66;;;15.91;64.31
66196;BME280;53000;45.182;5.736;2022-10-31T06:36:58;99706.28;;;15.91;64.27
66196;BME280;53000;45.182;5.736;2022-10-31T06:39:23;99705.63;;;15.89;64.27
66196;BME280;53000;45.182;5.736;2022-10-31T06:41:49;99704.13;;;15.86;64.09
66196;BME280;53000;45.182;5.736;2022-10-31T06:44:14;99699.44;;;15.80;63.91
66196;BME280;53000;45.182;5.736;2022-10-31T06:46:41;99702.94;;;15.74;64.19
66196;BME280;53000;45.182;5.736;2022-10-31T06:49:07;99694.38;;;15.62;64.53
66196;BME280;53000;45.182;5.736;2022-10-31T06:51:35;99687.16;;;15.54;64.14
66196;BME280;53000;45.182;5.736;2022-10-31T06:54:05;99705.16;;;15.49;64.88
66196;BME280;53000;45.182;5.736;2022-10-31T06:56:36;99694.03;;;15.50;64.39
66196;BME280;53000;45.182;5.736;2022-10-31T06:59:01;99694.88;;;15.51;64.58
66196;BME280;53000;45.182;5.736;2022-10-31T07:01:30;99698.25;;;15.53;64.73
66196;BME280;53000;45.182;5.736;2022-10-31T07:04:08;99688.84;;;15.56;64.74
66196;BME280;53000;45.182;5.736;2022-10-31T07:06:35;99685.25;;;15.55;64.50
66196;BME280;53000;45.182;5.736;2022-10-31T07:09:03;99688.28;;;15.60;64.78
66196;BME280;53000;45.182;5.736;2022-10-31T07:11:38;99683.47;;;15.62;64.67
66196;BME280;53000;45.182;5.736;2022-10-31T07:14:03;99684.78;;;15.66;64.58
66196;BME280;53000;45.182;5.736;2022-10-31T07:16:29;99672.16;;;15.65;64.47
66196;BME280;53000;45.182;5.736;2022-10-31T07:18:56;99670.91;;;15.68;64.57
66196;BME280;53000;45.182;5.736;2022-10-31T07:21:22;99673.47;;;15.69;64.15
66196;BME280;53000;45.182;5.736;2022-10-31T07:23:50;99674.16;;;15.71;64.48
66196;BME280;53000;45.182;5.736;2022-10-31T07:26:18;99674.41;;;15.77;64.36
66196;BME280;53000;45.182;5.736;2022-10-31T07:28:46;99682.03;;;15.81;64.39
66196;BME280;53000;45.182;5.736;2022-10-31T07:31:12;99666.31;;;15.83;64.88
66196;BME280;53000;45.182;5.736;2022-10-31T07:33:40;99674.28;;;15.85;64.61
66196;BME280;53000;45.182;5.736;2022-10-31T07:36:06;99667.22;;;15.90;64.61
66196;BME280;53000;45.182;5.736;2022-10-31T07:38:31;99663.06;;;15.94;64.80
66196;BME280;53000;45.182;5.736;2022-10-31T07:40:56;99655.13;;;16.00;64.35
66196;BME280;53000;45.182;5.736;2022-10-31T07:43:25;99659.63;;;16.07;64.17
66196;BME280;53000;45.182;5.736;2022-10-31T07:45:53;99669.09;;;16.11;64.15
66196;BME280;53000;45.182;5.736;2022-10-31T07:48:19;99677.72;;;16.15;64.33
66196;BME280;53000;45.182;5.736;2022-10-31T07:50:44;99670.25;;;16.24;64.04
66196;BME280;53000;45.182;5.736;2022-10-31T07:53:18;99668.03;;;16.34;64.07
66196;BME280;53000;45.182;5.736;2022-10-31T07:55:44;99668.72;;;16.43;63.96
66196;BME280;53000;45.182;5.736;2022-10-31T07:58:30;99669.84;;;16.48;63.71
66196;BME280;53000;45.182;5.736;2022-10-31T08:00:57;99665.72;;;16.59;63.69
66196;BME280;53000;45.182;5.736;2022-10-31T08:03:22;99671.03;;;16.67;63.46
66196;BME280;53000;45.182;5.736;2022-10-31T08:05:48;99667.09;;;16.76;63.24
66196;BME280;53000;45.182;5.736;2022-10-31T08:08:15;99662.34;;;16.85;63.10
66196;BME280;53000;45.182;5.736;2022-10-31T08:10:47;99662.81;;;16.95;63.05
66196;BME280;53000;45.182;5.736;2022-10-31T08:13:15;99666.00;;;16.99;62.86
66196;BME280;53000;45.182;5.736;2022-10-31T08:15:43;99660.56;;;17.06;62.94
66196;BME280;53000;45.182;5.736;2022-10-31T08:18:12;99661.13;;;17.36;63.05
66196;BME280;53000;45.182;5.736;2022-10-31T08:20:40;99656.69;;;18.10;62.63
66196;BME280;53000;45.182;5.736;2022-10-31T08:23:05;99662.16;;;19.03;61.31
66196;BME280;53000;45.182;5.736;2022-10-31T08:25:33;99657.25;;;20.02;60.05
66196;BME280;53000;45.182;5.736;2022-10-31T08:28:01;99662.81;;;20.96;58.48
66196;BME280;53000;45.182;5.736;2022-10-31T08:30:31;99654.34;;;21.83;57.69
66196;BME280;53000;45.182;5.736;2022-10-31T08:33:10;99643.75;;;22.76;56.40
66196;BME280;53000;45.182;5.736;2022-10-31T08:35:43;99630.50;;;23.65;53.16
66196;BME280;53000;45.182;5.736;2022-10-31T08:38:10;99632.13;;;24.41;52.65
66196;BME280;53000;45.182;5.736;2022-10-31T08:40:40;99634.81;;;25.08;51.49
66196;BME280;53000;45.182;5.736;2022-10-31T08:43:14;99637.34;;;25.76;50.36
66196;BME280;53000;45.182;5.736;2022-10-31T08:45:51;99640.72;;;26.38;49.47
66196;BME280;53000;45.182;5.736;2022-10-31T08:48:19;99629.84;;;26.63;44.05
66196;BME280;53000;45.182;5.736;2022-10-31T08:50:45;99628.41;;;26.98;47.24
66196;BME280;53000;45.182;5.736;2022-10-31T08:53:18;99639.41;;;27.25;41.15
66196;BME280;53000;45.182;5.736;2022-10-31T08:55:45;99637.28;;;27.48;45.07
66196;BME280;53000;45.182;5.736;2022-10-31T08:58:14;99628.47;;;27.82;43.57
66196;BME280;53000;45.182;5.736;2022-10-31T09:00:40;99630.75;;;28.10;38.77
66196;BME280;53000;45.182;5.736;2022-10-31T09:03:12;99628.00;;;28.16;39.57
66196;BME280;53000;45.182;5.736;2022-10-31T09:05:38;99636.59;;;28.19;41.67
66196;BME280;53000;45.182;5.736;2022-10-31T09:08:05;99633.81;;;28.04;37.35
66196;BME280;53000;45.182;5.736;2022-10-31T09:10:33;99633.13;;;27.61;42.11
66196;BME280;53000;45.182;5.736;2022-10-31T09:13:05;99634.03;;;27.13;42.23
66196;BME280;53000;45.182;5.736;2022-10-31T09:15:35;99621.03;;;26.71;40.15
66196;BME280;53000;45.182;5.736;2022-10-31T09:18:02;99627.00;;;26.21;41.40
66196;BME280;53000;45.182;5.736;2022-10-31T09:20:28;99622.34;;;25.77;42.76
66196;BME280;53000;45.182;5.736;2022-10-31T09:23:02;99610.13;;;25.46;43.40
66196;BME280;53000;45.182;5.736;2022-10-31T09:25:28;99620.63;;;25.22;43.61
66196;BME280;53000;45.182;5.736;2022-10-31T09:28:03;99617.09;;;25.09;42.60
66196;BME280;53000;45.182;5.736;2022-10-31T09:30:31;99618.97;;;25.04;42.78
66196;BME280;53000;45.182;5.736;2022-10-31T09:33:15;99623.03;;;25.18;42.05
66196;BME280;53000;45.182;5.736;2022-10-31T09:35:43;99622.09;;;25.29;42.35
66196;BME280;53000;45.182;5.736;2022-10-31T09:38:13;99616.84;;;25.55;43.34
66196;BME280;53000;45.182;5.736;2022-10-31T09:43:12;99620.72;;;26.36;41.63
66196;BME280;53000;45.182;5.736;2022-10-31T09:48:33;99618.06;;;27.41;41.20
66196;BME280;53000;45.182;5.736;2022-10-31T09:51:08;99612.31;;;27.73;40.34
66196;BME280;53000;45.182;5.736;2022-10-31T09:53:43;99616.31;;;28.13;39.37
66196;BME280;53000;45.182;5.736;2022-10-31T09:56:14;99612.13;;;28.57;40.69
66196;BME280;53000;45.182;5.736;2022-10-31T09:58:43;99607.94;;;28.70;39.16
66196;BME280;53000;45.182;5.736;2022-10-31T10:01:25;99608.47;;;28.82;39.07
66196;BME280;53000;45.182;5.736;2022-10-31T10:04:03;99613.47;;;28.85;39.40
66196;BME280;53000;45.182;5.736;2022-10-31T10:06:45;99610.41;;;28.87;38.84
66196;BME280;53000;45.182;5.736;2022-10-31T10:09:11;99602.00;;;29.02;38.29
66196;BME280;53000;45.182;5.736;2022-10-31T10:17:27;99605.97;;;29.56;37.97
66196;BME280;53000;45.182;5.736;2022-10-31T10:23:11;99603.28;;;29.90;37.06
66196;BME280;53000;45.182;5.736;2022-10-31T10:25:44;99590.94;;;30.02;37.12
66196;BME280;53000;45.182;5.736;2022-10-31T10:28:25;99588.06;;;30.12;36.72
66196;BME280;53000;45.182;5.736;2022-10-31T10:34:11;99572.28;;;30.31;35.27
66196;BME280;53000;45.182;5.736;2022-10-31T10:39:51;99579.28;;;30.29;35.08
66196;BME280;53000;45.182;5.736;2022-10-31T10:42:19;99578.94;;;30.35;35.05
66196;BME280;53000;45.182;5.736;2022-10-31T10:45:16;99581.09;;;30.44;32.27
66196;BME280;53000;45.182;5.736;2022-10-31T10:48:10;99581.56;;;30.56;34.74
66196;BME280;53000;45.182;5.736;2022-10-31T10:50:44;99575.03;;;30.66;33.77
66196;BME280;53000;45.182;5.736;2022-10-31T10:58:47;99571.75;;;29.90;33.21
66196;BME280;53000;45.182;5.736;2022-10-31T11:01:15;99568.50;;;29.77;33.40
66196;BME280;53000;45.182;5.736;2022-10-31T11:03:41;99575.44;;;29.85;33.77
66196;BME280;53000;45.182;5.736;2022-10-31T11:06:20;99570.00;;;29.99;33.36
66196;BME280;53000;45.182;5.736;2022-10-31T11:08:49;99565.78;;;30.07;32.78
66196;BME280;53000;45.182;5.736;2022-10-31T11:11:27;99559.91;;;30.08;32.66
66196;BME280;53000;45.182;5.736;2022-10-31T11:14:03;99561.16;;;29.92;33.07
66196;BME280;53000;45.182;5.736;2022-10-31T11:16:35;99545.31;;;29.82;33.28
66196;BME280;53000;45.182;5.736;2022-10-31T11:19:13;99552.00;;;29.81;33.42
66196;BME280;53000;45.182;5.736;2022-10-31T11:21:43;99540.03;;;29.81;33.24
66196;BME280;53000;45.182;5.736;2022-10-31T11:26:41;99542.22;;;29.84;33.43
66196;BME280;53000;45.182;5.736;2022-10-31T11:29:25;99530.25;;;29.83;32.70
66196;BME280;53000;45.182;5.736;2022-10-31T11:31:55;99526.09;;;29.75;33.47
66196;BME280;53000;45.182;5.736;2022-10-31T11:34:42;99521.28;;;29.86;32.75
66196;BME280;53000;45.182;5.736;2022-10-31T11:37:14;99512.06;;;29.86;33.32
66196;BME280;53000;45.182;5.736;2022-10-31T11:39:50;99506.00;;;29.79;32.49
66196;BME280;53000;45.182;5.736;2022-10-31T11:42:21;99506.31;;;29.67;32.34
66196;BME280;53000;45.182;5.736;2022-10-31T11:44:55;99501.88;;;29.71;32.77
66196;BME280;53000;45.182;5.736;2022-10-31T11:47:28;99496.25;;;29.76;32.86
66196;BME280;53000;45.182;5.736;2022-10-31T11:49:56;99487.13;;;29.60;32.37
66196;BME280;53000;45.182;5.736;2022-10-31T11:52:27;99471.31;;;29.50;32.61
66196;BME280;53000;45.182;5.736;2022-10-31T11:57:49;99476.22;;;29.64;32.75
66196;BME280;53000;45.182;5.736;2022-10-31T12:00:29;99468.69;;;29.69;33.12
66196;BME280;53000;45.182;5.736;2022-10-31T12:03:25;99450.03;;;29.60;33.00
66196;BME280;53000;45.182;5.736;2022-10-31T12:06:15;99452.69;;;29.46;32.83
66196;BME280;53000;45.182;5.736;2022-10-31T12:08:43;99439.56;;;29.46;32.84
66196;BME280;53000;45.182;5.736;2022-10-31T12:22:02;99415.31;;;28.32;33.65
66196;BME280;53000;45.182;5.736;2022-10-31T12:24:51;99417.31;;;28.06;33.96
66196;BME280;53000;45.182;5.736;2022-10-31T12:27:29;99412.91;;;27.94;34.75
66196;BME280;53000;45.182;5.736;2022-10-31T12:40:48;99368.28;;;28.30;35.33
66196;BME280;53000;45.182;5.736;2022-10-31T12:46:02;99370.91;;;28.71;35.63
66196;BME280;53000;45.182;5.736;2022-10-31T13:00:17;99344.91;;;28.86;35.18
66196;BME280;53000;45.182;5.736;2022-10-31T13:05:46;99360.69;;;28.51;34.72
66196;BME280;53000;45.182;5.736;2022-10-31T13:08:38;99333.25;;;28.19;35.89
66196;BME280;53000;45.182;5.736;2022-10-31T13:11:17;99344.16;;;28.05;36.33
66196;BME280;53000;45.182;5.736;2022-10-31T13:14:00;99342.78;;;28.03;36.13
66196;BME280;53000;45.182;5.736;2022-10-31T13:16:40;99332.25;;;27.89;36.39
66196;BME280;53000;45.182;5.736;2022-10-31T13:24:28;99323.66;;;27.70;37.34
66196;BME280;53000;45.182;5.736;2022-10-31T13:26:58;99332.50;;;27.98;37.07
66196;BME280;53000;45.182;5.736;2022-10-31T13:29:36;99312.97;;;28.08;36.41
66196;BME280;53000;45.182;5.736;2022-10-31T13:32:07;99303.53;;;28.04;36.80
66196;BME280;53000;45.182;5.736;2022-10-31T13:34:52;99328.34;;;27.90;36.05
66196;BME280;53000;45.182;5.736;2022-10-31T13:37:34;99301.09;;;27.72;36.53
66196;BME280;53000;45.182;5.736;2022-10-31T13:42:57;99323.13;;;27.48;36.33
66196;BME280;53000;45.182;5.736;2022-10-31T13:45:27;99333.13;;;27.33;36.87
66196;BME280;53000;45.182;5.736;2022-10-31T13:48:16;99297.53;;;27.36;36.42
66196;BME280;53000;45.182;5.736;2022-10-31T13:50:56;99292.53;;;27.38;36.12
66196;BME280;53000;45.182;5.736;2022-10-31T13:53:38;99308.13;;;27.49;36.94
66196;BME280;53000;45.182;5.736;2022-10-31T13:58:32;99314.41;;;27.96;37.19
66196;BME280;53000;45.182;5.736;2022-10-31T14:01:17;99296.28;;;28.13;36.72
66196;BME280;53000;45.182;5.736;2022-10-31T14:03:46;99332.66;;;28.27;36.21
66196;BME280;53000;45.182;5.736;2022-10-31T14:06:14;99294.47;;;28.38;35.76
66196;BME280;53000;45.182;5.736;2022-10-31T14:08:48;99306.97;;;28.41;35.80
66196;BME280;53000;45.182;5.736;2022-10-31T14:11:26;99326.22;;;28.37;34.84
66196;BME280;53000;45.182;5.736;2022-10-31T14:13:54;99284.78;;;28.25;35.37
66196;BME280;53000;45.182;5.736;2022-10-31T14:16:29;99292.13;;;28.06;35.54
66196;BME280;53000;45.182;5.736;2022-10-31T14:19:21;99325.00;;;27.83;36.15
66196;BME280;53000;45.182;5.736;2022-10-31T14:21:50;99309.19;;;27.63;36.42
66196;BME280;53000;45.182;5.736;2022-10-31T14:29:28;99322.84;;;27.29;37.24
66196;BME280;53000;45.182;5.736;2022-10-31T14:34:52;99290.59;;;26.97;37.13
66196;BME280;53000;45.182;5.736;2022-10-31T14:40:39;99315.00;;;26.80;37.83
66196;BME280;53000;45.182;5.736;2022-10-31T14:45:49;99290.03;;;26.69;39.00
66196;BME280;53000;45.182;5.736;2022-10-31T14:51:08;99298.84;;;26.51;38.86
66196;BME280;53000;45.182;5.736;2022-10-31T14:53:44;99292.16;;;26.42;38.62
66196;BME280;53000;45.182;5.736;2022-10-31T14:56:23;99302.09;;;26.32;38.48
66196;BME280;53000;45.182;5.736;2022-10-31T14:58:57;99299.59;;;26.26;39.17
66196;BME280;53000;45.182;5.736;2022-10-31T15:01:34;99289.88;;;26.18;39.24
66196;BME280;53000;45.182;5.736;2022-10-31T15:04:17;99273.75;;;26.10;39.11
66196;BME280;53000;45.182;5.736;2022-10-31T15:06:49;99274.25;;;26.02;39.34
66196;BME280;53000;45.182;5.736;2022-10-31T15:09:25;99281.16;;;25.94;40.00
66196;BME280;53000;45.182;5.736;2022-10-31T15:11:54;99276.69;;;25.88;39.95
66196;BME280;53000;45.182;5.736;2022-10-31T15:14:24;99270.28;;;25.82;40.34
66196;BME280;53000;45.182;5.736;2022-10-31T15:16:50;99285.19;;;25.71;40.35
66196;BME280;53000;45.182;5.736;2022-10-31T15:19:21;99277.63;;;25.61;40.37
66196;BME280;53000;45.182;5.736;2022-10-31T15:21:47;99279.53;;;25.56;40.75